Time,TemperatureF,DewpointF,PressureIn,WindDirection,WindDirectionDegrees,WindSpeedMPH,WindSpeedGustMPH,Humidity,HourlyPrecipIn,Conditions,Clouds,dailyrainin,SoftwareType,DateUTC
2013-05-06 01:01:00,69.0,38.0,-100.00,SSE,165,1.0,1.0,32,-99.99,,,-99.99,,2013-05-06 08:01:00,
2013-05-06 03:02:00,56.0,45.0,-100.00,WNW,290,1.0,2.0,66,-99.99,,,-99.99,,2013-05-06 10:02:00,
2013-05-06 03:12:00,56.0,45.0,-100.00,WNW,290,1.0,2.0,66,-99.99,,,-99.99,,2013-05-06 10:12:00,
2013-05-06 05:01:00,51.0,47.0,-100.00,WNW,290,0.0,1.0,86,-99.99,,,-99.99,,2013-05-06 12:01:00,
2013-05-06 05:12:00,51.0,47.0,-100.00,WNW,290,0.0,1.0,86,-99.99,,,-99.99,,2013-05-06 12:12:00,
2013-05-06 07:01:00,48.0,47.0,-100.00,NW,310,1.0,2.0,96,-99.99,,,-99.99,,2013-05-06 14:01:00,
2013-05-06 07:11:00,48.0,47.0,-100.00,NW,310,1.0,2.0,96,-99.99,,,-99.99,,2013-05-06 14:11:00,
2013-05-06 09:03:00,51.0,49.0,-100.00,NW,320,2.0,3.0,92,-99.99,,,-99.99,,2013-05-06 16:03:00,
2013-05-06 09:13:00,51.0,49.0,-100.00,NW,320,2.0,3.0,92,-99.99,,,-99.99,,2013-05-06 16:13:00,
2013-05-06 11:01:00,59.0,50.0,-100.00,NNW,330,3.0,7.0,72,-99.99,,,-99.99,,2013-05-06 18:01:00,
2013-05-06 11:12:00,59.0,50.0,-100.00,NNW,330,3.0,7.0,72,-99.99,,,-99.99,,2013-05-06 18:12:00,
2013-05-06 13:01:00,67.0,53.0,-100.00,West,280,3.0,5.0,60,-99.99,,,-99.99,,2013-05-06 20:01:00,
2013-05-06 13:11:00,67.0,53.0,-100.00,West,280,3.0,5.0,60,-99.99,,,-99.99,,2013-05-06 20:11:00,
2013-05-06 17:01:00,64.0,51.0,-100.00,NNW,330,3.0,9.0,62,-99.99,,,-99.99,,2013-05-07 00:01:00,
2013-05-06 17:11:00,64.0,51.0,-100.00,NNW,330,3.0,9.0,62,-99.99,,,-99.99,,2013-05-07 00:11:00,
2013-05-06 19:02:00,62.0,49.0,-100.00,NW,315,3.0,9.0,62,-99.99,,,-99.99,,2013-05-07 02:02:00,
2013-05-06 19:11:00,62.0,49.0,-100.00,NW,315,3.0,9.0,62,-99.99,,,-99.99,,2013-05-07 02:11:00,
2013-05-06 21:02:00,55.0,48.0,-100.00,NW,325,3.0,5.0,77,-99.99,,,-99.99,,2013-05-07 04:02:00,
2013-05-06 21:12:00,55.0,48.0,-100.00,NW,325,3.0,5.0,77,-99.99,,,-99.99,,2013-05-07 04:12:00,
2013-05-06 23:02:00,50.0,48.0,-100.00,NW,315,2.0,3.0,92,-99.99,,,-99.99,,2013-05-07 06:02:00,
2013-05-06 23:12:00,50.0,48.0,-100.00,NW,315,2.0,3.0,92,-99.99,,,-99.99,,2013-05-07 06:12:00,